sensor_id;sensor_type;location;lat;lon;timestamp;temperature;humidity
20815;DHT22;10568;48.176;16.316;2024-01-07T00:02:07;3.00;99.90
20815;DHT22;10568;48.176;16.316;2024-01-07T00:04:34;2.90;99.90
20815;DHT22;10568;48.176;16.316;2024-01-07T00:07:01;2.90;99.90
20815;DHT22;10568;48.176;16.316;2024-01-07T00:09:28;2.90;99.90
20815;DHT22;10568;48.176;16.316;2024-01-07T00:11:55;2.80;99.90
20815;DHT22;10568;48.176;16.316;2024-01-07T00:14:23;2.80;99.90
20815;DHT22;10568;48.176;16.316;2024-01-07T00:16:50;2.80;99.90
20815;DHT22;10568;48.176;16.316;2024-01-07T00:19:17;2.80;99.90
20815;DHT22;10568;48.176;16.316;2024-01-07T00:21:45;2.80;99.90
20815;DHT22;10568;48.176;16.316;2024-01-07T00:24:12;2.70;99.90
20815;DHT22;10568;48.176;16.316;2024-01-07T00:26:39;2.70;99.90
20815;DHT22;10568;48.176;16.316;2024-01-07T00:29:06;2.80;99.90
20815;DHT22;10568;48.176;16.316;2024-01-07T00:31:33;2.80;99.90
20815;DHT22;10568;48.176;16.316;2024-01-07T00:34:00;2.80;99.90
20815;DHT22;10568;48.176;16.316;2024-01-07T00:36:28;2.70;99.90
20815;DHT22;10568;48.176;16.316;2024-01-07T00:38:55;2.70;99.90
20815;DHT22;10568;48.176;16.316;2024-01-07T00:41:22;2.60;99.90
20815;DHT22;10568;48.176;16.316;2024-01-07T00:43:49;2.60;99.90
20815;DHT22;10568;48.176;16.316;2024-01-07T00:46:16;2.50;99.90
20815;DHT22;10568;48.176;16.316;2024-01-07T00:48:43;2.50;99.90
20815;DHT22;10568;48.176;16.316;2024-01-07T00:51:11;2.50;99.90
20815;DHT22;10568;48.176;16.316;2024-01-07T00:53:39;2.50;99.90
20815;DHT22;10568;48.176;16.316;2024-01-07T00:56:07;2.50;99.90
20815;DHT22;10568;48.176;16.316;2024-01-07T00:58:36;2.40;99.90
20815;DHT22;10568;48.176;16.316;2024-01-07T01:01:03;2.40;99.90
20815;DHT22;10568;48.176;16.316;2024-01-07T01:03:31;2.40;99.90
20815;DHT22;10568;48.176;16.316;2024-01-07T01:05:59;2.40;99.90
20815;DHT22;10568;48.176;16.316;2024-01-07T01:08:26;2.40;99.90
20815;DHT22;10568;48.176;16.316;2024-01-07T01:10:53;2.30;99.90
20815;DHT22;10568;48.176;16.316;2024-01-07T01:13:21;2.40;99.90
20815;DHT22;10568;48.176;16.316;2024-01-07T01:15:48;2.40;99.90
20815;DHT22;10568;48.176;16.316;2024-01-07T01:18:15;2.30;99.90
20815;DHT22;10568;48.176;16.316;2024-01-07T01:20:43;2.30;99.90
20815;DHT22;10568;48.176;16.316;2024-01-07T01:23:10;2.30;99.90
20815;DHT22;10568;48.176;16.316;2024-01-07T01:25:37;2.30;99.90
20815;DHT22;10568;48.176;16.316;2024-01-07T01:28:06;2.30;99.90
20815;DHT22;10568;48.176;16.316;2024-01-07T01:30:33;2.30;99.90
20815;DHT22;10568;48.176;16.316;2024-01-07T01:33:01;2.20;99.90
20815;DHT22;10568;48.176;16.316;2024-01-07T01:35:29;2.20;99.90
20815;DHT22;10568;48.176;16.316;2024-01-07T01:37:56;2.20;99.90
20815;DHT22;10568;48.176;16.316;2024-01-07T01:40:23;2.20;99.90
20815;DHT22;10568;48.176;16.316;2024-01-07T01:42:50;2.20;99.90
20815;DHT22;10568;48.176;16.316;2024-01-07T01:45:18;2.20;99.90
20815;DHT22;10568;48.176;16.316;2024-01-07T01:47:46;2.30;99.90
20815;DHT22;10568;48.176;16.316;2024-01-07T01:50:14;2.30;99.90
20815;DHT22;10568;48.176;16.316;2024-01-07T01:52:44;2.20;99.90
20815;DHT22;10568;48.176;16.316;2024-01-07T01:55:12;2.30;99.90
20815;DHT22;10568;48.176;16.316;2024-01-07T01:57:41;2.20;99.90
20815;DHT22;10568;48.176;16.316;2024-01-07T02:00:08;2.20;99.90
20815;DHT22;10568;48.176;16.316;2024-01-07T02:02:36;2.20;99.90
20815;DHT22;10568;48.176;16.316;2024-01-07T02:05:04;2.20;99.90
20815;DHT22;10568;48.176;16.316;2024-01-07T02:07:31;2.20;99.90
20815;DHT22;10568;48.176;16.316;2024-01-07T02:09:59;2.20;99.90
20815;DHT22;10568;48.176;16.316;2024-01-07T02:12:27;2.20;99.90
20815;DHT22;10568;48.176;16.316;2024-01-07T02:14:54;2.20;99.90
20815;DHT22;10568;48.176;16.316;2024-01-07T02:17:21;2.20;99.90
20815;DHT22;10568;48.176;16.316;2024-01-07T02:19:49;2.20;99.90
20815;DHT22;10568;48.176;16.316;2024-01-07T02:22:16;2.20;99.90
20815;DHT22;10568;48.176;16.316;2024-01-07T02:24:43;2.20;99.90
20815;DHT22;10568;48.176;16.316;2024-01-07T02:27:10;2.20;99.90
20815;DHT22;10568;48.176;16.316;2024-01-07T02:29:37;2.10;99.90
20815;DHT22;10568;48.176;16.316;2024-01-07T02:32:05;2.10;99.90
20815;DHT22;10568;48.176;16.316;2024-01-07T02:34:32;2.10;99.90
20815;DHT22;10568;48.176;16.316;2024-01-07T02:36:59;2.10;99.90
20815;DHT22;10568;48.176;16.316;2024-01-07T02:39:26;2.10;99.90
20815;DHT22;10568;48.176;16.316;2024-01-07T02:41:53;2.10;99.90
20815;DHT22;10568;48.176;16.316;2024-01-07T02:44:20;2.10;99.90
20815;DHT22;10568;48.176;16.316;2024-01-07T02:46:47;2.10;99.90
20815;DHT22;10568;48.176;16.316;2024-01-07T02:49:14;2.10;99.90
20815;DHT22;10568;48.176;16.316;2024-01-07T02:51:42;2.10;99.90
20815;DHT22;10568;48.176;16.316;2024-01-07T02:54:12;2.00;99.90
20815;DHT22;10568;48.176;16.316;2024-01-07T02:56:39;2.00;99.90
20815;DHT22;10568;48.176;16.316;2024-01-07T02:59:06;2.00;99.90
20815;DHT22;10568;48.176;16.316;2024-01-07T03:01:33;1.90;99.90
20815;DHT22;10568;48.176;16.316;2024-01-07T03:04:09;1.90;99.90
20815;DHT22;10568;48.176;16.316;2024-01-07T03:06:37;1.90;99.90
20815;DHT22;10568;48.176;16.316;2024-01-07T03:09:05;1.90;99.90
20815;DHT22;10568;48.176;16.316;2024-01-07T03:11:32;1.90;99.90
20815;DHT22;10568;48.176;16.316;2024-01-07T03:13:59;1.90;99.90
20815;DHT22;10568;48.176;16.316;2024-01-07T03:16:26;1.80;99.90
20815;DHT22;10568;48.176;16.316;2024-01-07T03:18:53;1.80;99.90
20815;DHT22;10568;48.176;16.316;2024-01-07T03:21:23;1.90;99.90
20815;DHT22;10568;48.176;16.316;2024-01-07T03:23:51;1.80;99.90
20815;DHT22;10568;48.176;16.316;2024-01-07T03:26:19;1.80;99.90
20815;DHT22;10568;48.176;16.316;2024-01-07T03:28:46;1.80;99.90
20815;DHT22;10568;48.176;16.316;2024-01-07T03:31:15;1.80;99.90
20815;DHT22;10568;48.176;16.316;2024-01-07T03:33:43;1.80;99.90
20815;DHT22;10568;48.176;16.316;2024-01-07T03:36:12;1.80;99.90
20815;DHT22;10568;48.176;16.316;2024-01-07T03:38:41;1.70;99.90
20815;DHT22;10568;48.176;16.316;2024-01-07T03:41:08;1.70;99.90
20815;DHT22;10568;48.176;16.316;2024-01-07T03:43:35;1.70;99.90
20815;DHT22;10568;48.176;16.316;2024-01-07T03:46:02;1.70;99.90
20815;DHT22;10568;48.176;16.316;2024-01-07T03:48:29;1.60;99.90
20815;DHT22;10568;48.176;16.316;2024-01-07T03:50:57;1.60;99.90
20815;DHT22;10568;48.176;16.316;2024-01-07T03:53:24;1.60;99.90
20815;DHT22;10568;48.176;16.316;2024-01-07T03:55:51;1.50;99.90
20815;DHT22;10568;48.176;16.316;2024-01-07T03:58:18;1.50;99.90
20815;DHT22;10568;48.176;16.316;2024-01-07T04:00:45;1.60;99.90
20815;DHT22;10568;48.176;16.316;2024-01-07T04:03:12;1.70;99.90
20815;DHT22;10568;48.176;16.316;2024-01-07T04:05:40;1.60;99.90
20815;DHT22;10568;48.176;16.316;2024-01-07T04:08:09;1.60;99.90
20815;DHT22;10568;48.176;16.316;2024-01-07T04:10:37;1.60;99.90
20815;DHT22;10568;48.176;16.316;2024-01-07T04:13:04;1.60;99.90
20815;DHT22;10568;48.176;16.316;2024-01-07T04:15:32;1.50;99.90
20815;DHT22;10568;48.176;16.316;2024-01-07T04:18:01;1.50;99.90
20815;DHT22;10568;48.176;16.316;2024-01-07T04:20:30;1.50;99.90
20815;DHT22;10568;48.176;16.316;2024-01-07T04:22:58;1.50;99.90
20815;DHT22;10568;48.176;16.316;2024-01-07T04:25:25;1.40;99.90
20815;DHT22;10568;48.176;16.316;2024-01-07T04:27:52;1.40;99.90
20815;DHT22;10568;48.176;16.316;2024-01-07T04:30:20;1.40;99.90
20815;DHT22;10568;48.176;16.316;2024-01-07T04:32:47;1.40;99.90
20815;DHT22;10568;48.176;16.316;2024-01-07T04:35:14;1.40;99.90
20815;DHT22;10568;48.176;16.316;2024-01-07T04:37:42;1.40;99.90
20815;DHT22;10568;48.176;16.316;2024-01-07T04:40:09;1.40;99.90
20815;DHT22;10568;48.176;16.316;2024-01-07T04:42:37;1.40;99.90
20815;DHT22;10568;48.176;16.316;2024-01-07T04:45:04;1.30;99.90
20815;DHT22;10568;48.176;16.316;2024-01-07T04:47:33;1.30;99.90
20815;DHT22;10568;48.176;16.316;2024-01-07T04:50:02;1.30;99.90
20815;DHT22;10568;48.176;16.316;2024-01-07T04:52:31;1.30;99.90
20815;DHT22;10568;48.176;16.316;2024-01-07T04:54:58;1.30;99.90
20815;DHT22;10568;48.176;16.316;2024-01-07T04:57:25;1.30;99.90
20815;DHT22;10568;48.176;16.316;2024-01-07T04:59:53;1.30;99.90
20815;DHT22;10568;48.176;16.316;2024-01-07T05:02:20;1.30;99.90
20815;DHT22;10568;48.176;16.316;2024-01-07T05:04:48;1.20;99.90
20815;DHT22;10568;48.176;16.316;2024-01-07T05:07:15;1.30;99.90
20815;DHT22;10568;48.176;16.316;2024-01-07T05:09:42;1.20;99.90
20815;DHT22;10568;48.176;16.316;2024-01-07T05:12:09;1.20;99.90
20815;DHT22;10568;48.176;16.316;2024-01-07T05:14:36;1.20;99.90
20815;DHT22;10568;48.176;16.316;2024-01-07T05:17:04;1.20;99.90
20815;DHT22;10568;48.176;16.316;2024-01-07T05:19:31;1.20;99.90
20815;DHT22;10568;48.176;16.316;2024-01-07T05:21:59;1.20;99.90
20815;DHT22;10568;48.176;16.316;2024-01-07T05:24:27;1.20;99.90
20815;DHT22;10568;48.176;16.316;2024-01-07T05:26:54;1.10;99.90
20815;DHT22;10568;48.176;16.316;2024-01-07T05:29:21;1.10;99.90
20815;DHT22;10568;48.176;16.316;2024-01-07T05:31:49;1.10;99.90
20815;DHT22;10568;48.176;16.316;2024-01-07T05:34:16;1.10;99.90
20815;DHT22;10568;48.176;16.316;2024-01-07T05:36:44;1.10;99.90
20815;DHT22;10568;48.176;16.316;2024-01-07T05:39:11;1.10;99.90
20815;DHT22;10568;48.176;16.316;2024-01-07T05:41:38;1.10;99.90
20815;DHT22;10568;48.176;16.316;2024-01-07T05:44:09;1.10;99.90
20815;DHT22;10568;48.176;16.316;2024-01-07T05:46:40;1.10;99.90
20815;DHT22;10568;48.176;16.316;2024-01-07T05:49:07;1.00;99.90
20815;DHT22;10568;48.176;16.316;2024-01-07T05:51:39;1.00;99.90
20815;DHT22;10568;48.176;16.316;2024-01-07T05:54:07;1.00;99.90
20815;DHT22;10568;48.176;16.316;2024-01-07T05:56:41;1.00;99.90
20815;DHT22;10568;48.176;16.316;2024-01-07T05:59:08;1.00;99.90
20815;DHT22;10568;48.176;16.316;2024-01-07T06:01:35;1.00;99.90
20815;DHT22;10568;48.176;16.316;2024-01-07T06:04:03;0.90;99.90
20815;DHT22;10568;48.176;16.316;2024-01-07T06:06:30;0.90;99.90
20815;DHT22;10568;48.176;16.316;2024-01-07T06:08:58;0.80;99.90
20815;DHT22;10568;48.176;16.316;2024-01-07T06:11:25;0.80;99.90
20815;DHT22;10568;48.176;16.316;2024-01-07T06:13:52;0.80;99.90
20815;DHT22;10568;48.176;16.316;2024-01-07T06:16:19;0.80;99.90
20815;DHT22;10568;48.176;16.316;2024-01-07T06:18:46;0.80;99.90
20815;DHT22;10568;48.176;16.316;2024-01-07T06:21:13;0.80;99.90
20815;DHT22;10568;48.176;16.316;2024-01-07T06:23:40;0.70;99.90
20815;DHT22;10568;48.176;16.316;2024-01-07T06:26:07;0.70;99.90
20815;DHT22;10568;48.176;16.316;2024-01-07T06:28:34;0.70;99.90
20815;DHT22;10568;48.176;16.316;2024-01-07T06:31:04;0.60;99.90
20815;DHT22;10568;48.176;16.316;2024-01-07T06:33:32;0.60;99.90
20815;DHT22;10568;48.176;16.316;2024-01-07T06:36:00;0.70;99.90
20815;DHT22;10568;48.176;16.316;2024-01-07T06:38:27;0.70;99.90
20815;DHT22;10568;48.176;16.316;2024-01-07T06:40:54;0.70;99.90
20815;DHT22;10568;48.176;16.316;2024-01-07T06:43:27;0.60;99.90
20815;DHT22;10568;48.176;16.316;2024-01-07T06:45:54;0.70;99.90
20815;DHT22;10568;48.176;16.316;2024-01-07T06:48:22;0.60;99.90
20815;DHT22;10568;48.176;16.316;2024-01-07T06:50:49;0.60;99.90
20815;DHT22;10568;48.176;16.316;2024-01-07T06:53:16;0.60;99.90
20815;DHT22;10568;48.176;16.316;2024-01-07T06:55:43;0.60;99.90
20815;DHT22;10568;48.176;16.316;2024-01-07T06:58:10;0.60;99.90
20815;DHT22;10568;48.176;16.316;2024-01-07T07:00:37;0.60;99.90
20815;DHT22;10568;48.176;16.316;2024-01-07T07:03:05;0.60;99.90
20815;DHT22;10568;48.176;16.316;2024-01-07T07:05:33;0.60;99.90
20815;DHT22;10568;48.176;16.316;2024-01-07T07:08:02;0.50;99.90
20815;DHT22;10568;48.176;16.316;2024-01-07T07:10:29;0.60;99.90
20815;DHT22;10568;48.176;16.316;2024-01-07T07:12:58;0.50;99.90
20815;DHT22;10568;48.176;16.316;2024-01-07T07:15:25;0.50;99.90
20815;DHT22;10568;48.176;16.316;2024-01-07T07:17:55;0.50;99.90
20815;DHT22;10568;48.176;16.316;2024-01-07T07:20:23;0.40;99.90
20815;DHT22;10568;48.176;16.316;2024-01-07T07:22:50;0.40;99.90
20815;DHT22;10568;48.176;16.316;2024-01-07T07:25:17;0.40;99.90
20815;DHT22;10568;48.176;16.316;2024-01-07T07:27:45;0.30;99.90
20815;DHT22;10568;48.176;16.316;2024-01-07T07:30:13;0.30;99.90
20815;DHT22;10568;48.176;16.316;2024-01-07T07:32:40;0.30;99.90
20815;DHT22;10568;48.176;16.316;2024-01-07T07:35:11;0.30;99.90
20815;DHT22;10568;48.176;16.316;2024-01-07T07:37:38;0.30;99.90
20815;DHT22;10568;48.176;16.316;2024-01-07T07:40:06;0.30;99.90
20815;DHT22;10568;48.176;16.316;2024-01-07T07:42:33;0.20;99.90
20815;DHT22;10568;48.176;16.316;2024-01-07T07:45:00;0.20;99.90
20815;DHT22;10568;48.176;16.316;2024-01-07T07:47:29;0.30;99.90
20815;DHT22;10568;48.176;16.316;2024-01-07T07:49:57;0.30;99.90
20815;DHT22;10568;48.176;16.316;2024-01-07T07:52:25;0.40;99.90
20815;DHT22;10568;48.176;16.316;2024-01-07T07:54:53;0.40;99.90
20815;DHT22;10568;48.176;16.316;2024-01-07T07:57:21;0.40;99.90
20815;DHT22;10568;48.176;16.316;2024-01-07T07:59:49;0.40;99.90
20815;DHT22;10568;48.176;16.316;2024-01-07T08:02:17;0.40;99.90
20815;DHT22;10568;48.176;16.316;2024-01-07T08:04:44;0.40;99.90
20815;DHT22;10568;48.176;16.316;2024-01-07T08:07:11;0.40;99.90
20815;DHT22;10568;48.176;16.316;2024-01-07T08:09:38;0.40;99.90
20815;DHT22;10568;48.176;16.316;2024-01-07T08:12:06;0.40;99.90
20815;DHT22;10568;48.176;16.316;2024-01-07T08:14:33;0.40;99.90
20815;DHT22;10568;48.176;16.316;2024-01-07T08:17:00;0.40;99.90
20815;DHT22;10568;48.176;16.316;2024-01-07T08:19:27;0.40;99.90
20815;DHT22;10568;48.176;16.316;2024-01-07T08:21:55;0.40;99.90
20815;DHT22;10568;48.176;16.316;2024-01-07T08:24:23;0.40;99.90
20815;DHT22;10568;48.176;16.316;2024-01-07T08:26:50;0.40;99.90
20815;DHT22;10568;48.176;16.316;2024-01-07T08:29:18;0.40;99.90
20815;DHT22;10568;48.176;16.316;2024-01-07T08:31:45;0.40;99.90
20815;DHT22;10568;48.176;16.316;2024-01-07T08:34:13;0.40;99.90
20815;DHT22;10568;48.176;16.316;2024-01-07T08:36:42;0.40;99.90
20815;DHT22;10568;48.176;16.316;2024-01-07T08:39:09;0.40;99.90
20815;DHT22;10568;48.176;16.316;2024-01-07T08:41:38;0.40;99.90
20815;DHT22;10568;48.176;16.316;2024-01-07T08:44:05;0.40;99.90
20815;DHT22;10568;48.176;16.316;2024-01-07T08:46:35;0.30;99.90
20815;DHT22;10568;48.176;16.316;2024-01-07T08:49:03;0.30;99.90
20815;DHT22;10568;48.176;16.316;2024-01-07T08:51:30;0.30;99.90
20815;DHT22;10568;48.176;16.316;2024-01-07T08:53:58;0.20;99.90
20815;DHT22;10568;48.176;16.316;2024-01-07T08:56:25;0.20;99.90
20815;DHT22;10568;48.176;16.316;2024-01-07T08:58:52;0.20;99.90
20815;DHT22;10568;48.176;16.316;2024-01-07T09:01:20;0.30;99.90
20815;DHT22;10568;48.176;16.316;2024-01-07T09:03:47;0.30;99.90
20815;DHT22;10568;48.176;16.316;2024-01-07T09:06:14;0.30;99.90
20815;DHT22;10568;48.176;16.316;2024-01-07T09:08:43;0.30;99.90
20815;DHT22;10568;48.176;16.316;2024-01-07T09:11:10;0.40;99.90
20815;DHT22;10568;48.176;16.316;2024-01-07T09:14:11;0.40;99.90
20815;DHT22;10568;48.176;16.316;2024-01-07T09:17:26;0.40;99.90
20815;DHT22;10568;48.176;16.316;2024-01-07T09:19:53;0.40;99.90
20815;DHT22;10568;48.176;16.316;2024-01-07T09:22:20;0.30;99.90
20815;DHT22;10568;48.176;16.316;2024-01-07T09:24:48;0.30;99.90
20815;DHT22;10568;48.176;16.316;2024-01-07T09:27:18;0.40;99.90
20815;DHT22;10568;48.176;16.316;2024-01-07T09:29:45;0.40;99.90
20815;DHT22;10568;48.176;16.316;2024-01-07T09:32:12;0.40;99.90
20815;DHT22;10568;48.176;16.316;2024-01-07T09:34:39;0.40;99.90
20815;DHT22;10568;48.176;16.316;2024-01-07T09:37:06;0.40;99.90
20815;DHT22;10568;48.176;16.316;2024-01-07T09:39:39;0.40;99.90
20815;DHT22;10568;48.176;16.316;2024-01-07T09:42:14;0.50;99.90
20815;DHT22;10568;48.176;16.316;2024-01-07T09:44:42;0.50;99.90
20815;DHT22;10568;48.176;16.316;2024-01-07T09:47:14;0.50;99.90
20815;DHT22;10568;48.176;16.316;2024-01-07T09:49:42;0.50;99.90
20815;DHT22;10568;48.176;16.316;2024-01-07T09:52:11;0.50;99.90
20815;DHT22;10568;48.176;16.316;2024-01-07T09:54:40;0.40;99.90
20815;DHT22;10568;48.176;16.316;2024-01-07T09:57:08;0.40;99.90
20815;DHT22;10568;48.176;16.316;2024-01-07T09:59:36;0.40;99.90
20815;DHT22;10568;48.176;16.316;2024-01-07T10:02:03;0.50;99.90
20815;DHT22;10568;48.176;16.316;2024-01-07T10:04:31;0.50;99.90
20815;DHT22;10568;48.176;16.316;2024-01-07T10:06:59;0.50;99.90
20815;DHT22;10568;48.176;16.316;2024-01-07T10:09:32;0.60;99.90
20815;DHT22;10568;48.176;16.316;2024-01-07T10:12:00;0.50;99.90
20815;DHT22;10568;48.176;16.316;2024-01-07T10:14:27;0.60;99.90
20815;DHT22;10568;48.176;16.316;2024-01-07T10:16:59;0.50;99.90
20815;DHT22;10568;48.176;16.316;2024-01-07T10:19:26;0.50;99.90
20815;DHT22;10568;48.176;16.316;2024-01-07T10:22:02;0.50;99.90
20815;DHT22;10568;48.176;16.316;2024-01-07T10:24:39;0.50;99.90
20815;DHT22;10568;48.176;16.316;2024-01-07T10:27:07;0.50;99.90
20815;DHT22;10568;48.176;16.316;2024-01-07T10:29:35;0.60;99.90
20815;DHT22;10568;48.176;16.316;2024-01-07T10:32:03;0.60;99.90
20815;DHT22;10568;48.176;16.316;2024-01-07T10:34:35;0.50;99.90
20815;DHT22;10568;48.176;16.316;2024-01-07T10:37:04;0.50;99.90
20815;DHT22;10568;48.176;16.316;2024-01-07T10:39:32;0.50;99.90
20815;DHT22;10568;48.176;16.316;2024-01-07T10:42:00;0.50;99.90
20815;DHT22;10568;48.176;16.316;2024-01-07T10:44:30;0.40;99.90
20815;DHT22;10568;48.176;16.316;2024-01-07T10:46:58;0.40;99.90
20815;DHT22;10568;48.176;16.316;2024-01-07T10:49:27;0.40;99.90
20815;DHT22;10568;48.176;16.316;2024-01-07T10:52:05;0.40;99.90
20815;DHT22;10568;48.176;16.316;2024-01-07T10:54:35;0.50;99.90
20815;DHT22;10568;48.176;16.316;2024-01-07T10:57:34;0.40;99.90
20815;DHT22;10568;48.176;16.316;2024-01-07T11:00:03;0.50;99.90
20815;DHT22;10568;48.176;16.316;2024-01-07T11:02:44;0.40;99.90
20815;DHT22;10568;48.176;16.316;2024-01-07T11:05:23;0.50;99.90
20815;DHT22;10568;48.176;16.316;2024-01-07T11:08:06;0.30;99.90
20815;DHT22;10568;48.176;16.316;2024-01-07T11:10:45;0.40;99.90
20815;DHT22;10568;48.176;16.316;2024-01-07T11:13:36;0.50;99.90
20815;DHT22;10568;48.176;16.316;2024-01-07T11:16:07;0.50;99.90
20815;DHT22;10568;48.176;16.316;2024-01-07T11:18:50;0.50;99.90
20815;DHT22;10568;48.176;16.316;2024-01-07T11:21:22;0.60;99.90
20815;DHT22;10568;48.176;16.316;2024-01-07T11:23:52;0.60;99.90
20815;DHT22;10568;48.176;16.316;2024-01-07T11:26:20;0.80;99.90
20815;DHT22;10568;48.176;16.316;2024-01-07T11:28:51;0.80;99.90
20815;DHT22;10568;48.176;16.316;2024-01-07T11:31:20;0.80;99.90
20815;DHT22;10568;48.176;16.316;2024-01-07T11:33:49;0.90;99.90
20815;DHT22;10568;48.176;16.316;2024-01-07T11:36:17;0.90;99.90
20815;DHT22;10568;48.176;16.316;2024-01-07T11:38:47;0.90;99.90
20815;DHT22;10568;48.176;16.316;2024-01-07T11:41:20;1.00;99.90
20815;DHT22;10568;48.176;16.316;2024-01-07T11:43:54;1.00;99.90
20815;DHT22;10568;48.176;16.316;2024-01-07T11:46:22;1.10;99.90
20815;DHT22;10568;48.176;16.316;2024-01-07T11:49:03;1.10;99.90
20815;DHT22;10568;48.176;16.316;2024-01-07T11:51:32;1.00;99.90
20815;DHT22;10568;48.176;16.316;2024-01-07T11:54:01;1.10;99.90
20815;DHT22;10568;48.176;16.316;2024-01-07T11:56:28;1.00;99.90
20815;DHT22;10568;48.176;16.316;2024-01-07T11:58:56;1.00;99.90
20815;DHT22;10568;48.176;16.316;2024-01-07T12:01:23;0.90;99.90
20815;DHT22;10568;48.176;16.316;2024-01-07T12:03:54;0.80;99.90
20815;DHT22;10568;48.176;16.316;2024-01-07T12:06:22;0.90;99.90
20815;DHT22;10568;48.176;16.316;2024-01-07T12:08:49;0.80;99.90
20815;DHT22;10568;48.176;16.316;2024-01-07T12:11:17;0.80;99.90
20815;DHT22;10568;48.176;16.316;2024-01-07T12:17:02;0.70;99.90
20815;DHT22;10568;48.176;16.316;2024-01-07T12:19:29;0.70;99.90
20815;DHT22;10568;48.176;16.316;2024-01-07T12:22:06;0.60;99.90
20815;DHT22;10568;48.176;16.316;2024-01-07T12:24:34;0.60;99.90
20815;DHT22;10568;48.176;16.316;2024-01-07T12:27:06;0.70;99.90
20815;DHT22;10568;48.176;16.316;2024-01-07T12:29:34;0.60;99.90
20815;DHT22;10568;48.176;16.316;2024-01-07T12:32:01;0.60;99.90
20815;DHT22;10568;48.176;16.316;2024-01-07T12:34:30;0.70;99.90
20815;DHT22;10568;48.176;16.316;2024-01-07T12:36:58;0.70;99.90
20815;DHT22;10568;48.176;16.316;2024-01-07T12:39:26;0.80;99.90
20815;DHT22;10568;48.176;16.316;2024-01-07T12:41:55;0.70;99.90
20815;DHT22;10568;48.176;16.316;2024-01-07T12:44:22;0.70;99.90
20815;DHT22;10568;48.176;16.316;2024-01-07T12:46:49;0.80;99.90
20815;DHT22;10568;48.176;16.316;2024-01-07T12:49:20;0.80;99.90
20815;DHT22;10568;48.176;16.316;2024-01-07T12:51:50;0.70;99.90
20815;DHT22;10568;48.176;16.316;2024-01-07T12:54:17;0.80;99.90
20815;DHT22;10568;48.176;16.316;2024-01-07T12:56:46;0.70;99.90
20815;DHT22;10568;48.176;16.316;2024-01-07T12:59:13;0.70;99.90
20815;DHT22;10568;48.176;16.316;2024-01-07T13:01:41;0.70;99.90
20815;DHT22;10568;48.176;16.316;2024-01-07T13:04:08;0.70;99.90
20815;DHT22;10568;48.176;16.316;2024-01-07T13:06:36;0.70;99.90
20815;DHT22;10568;48.176;16.316;2024-01-07T13:09:04;0.70;99.90
20815;DHT22;10568;48.176;16.316;2024-01-07T13:11:32;0.70;99.90
20815;DHT22;10568;48.176;16.316;2024-01-07T13:13:59;0.70;99.90
20815;DHT22;10568;48.176;16.316;2024-01-07T13:16:30;0.70;99.90
20815;DHT22;10568;48.176;16.316;2024-01-07T13:18:57;0.70;99.90
20815;DHT22;10568;48.176;16.316;2024-01-07T13:21:24;0.60;99.90
20815;DHT22;10568;48.176;16.316;2024-01-07T13:23:51;0.60;99.90
20815;DHT22;10568;48.176;16.316;2024-01-07T13:26:18;0.50;99.90
20815;DHT22;10568;48.176;16.316;2024-01-07T13:28:47;0.40;99.90
20815;DHT22;10568;48.176;16.316;2024-01-07T13:31:14;0.30;99.90
20815;DHT22;10568;48.176;16.316;2024-01-07T13:33:42;0.40;99.90
20815;DHT22;10568;48.176;16.316;2024-01-07T13:36:10;0.30;99.90
20815;DHT22;10568;48.176;16.316;2024-01-07T13:38:39;0.30;99.90
20815;DHT22;10568;48.176;16.316;2024-01-07T13:41:12;0.30;99.90
20815;DHT22;10568;48.176;16.316;2024-01-07T13:43:41;0.20;99.90
20815;DHT22;10568;48.176;16.316;2024-01-07T13:46:08;0.20;99.90
20815;DHT22;10568;48.176;16.316;2024-01-07T13:48:36;0.20;99.90
20815;DHT22;10568;48.176;16.316;2024-01-07T13:51:06;0.10;99.90
20815;DHT22;10568;48.176;16.316;2024-01-07T13:53:33;0.20;99.90
20815;DHT22;10568;48.176;16.316;2024-01-07T13:56:02;0.10;99.90
20815;DHT22;10568;48.176;16.316;2024-01-07T13:58:29;0.10;99.90
20815;DHT22;10568;48.176;16.316;2024-01-07T14:00:56;0.10;99.90
20815;DHT22;10568;48.176;16.316;2024-01-07T14:03:24;0.10;99.90
20815;DHT22;10568;48.176;16.316;2024-01-07T14:05:51;0.10;99.90
20815;DHT22;10568;48.176;16.316;2024-01-07T14:08:18;0.10;99.90
20815;DHT22;10568;48.176;16.316;2024-01-07T14:10:45;0.10;99.90
20815;DHT22;10568;48.176;16.316;2024-01-07T14:13:12;0.10;99.90
20815;DHT22;10568;48.176;16.316;2024-01-07T14:15:40;0.00;99.90
20815;DHT22;10568;48.176;16.316;2024-01-07T14:18:07;0.00;99.90
20815;DHT22;10568;48.176;16.316;2024-01-07T14:20:36;0.00;99.90
20815;DHT22;10568;48.176;16.316;2024-01-07T14:23:04;0.00;99.90
20815;DHT22;10568;48.176;16.316;2024-01-07T14:25:31;0.00;99.90
20815;DHT22;10568;48.176;16.316;2024-01-07T14:27:58;0.10;99.90
20815;DHT22;10568;48.176;16.316;2024-01-07T14:30:25;0.00;99.90
20815;DHT22;10568;48.176;16.316;2024-01-07T14:32:53;0.00;99.90
20815;DHT22;10568;48.176;16.316;2024-01-07T14:35:21;0.00;99.90
20815;DHT22;10568;48.176;16.316;2024-01-07T14:37:49;0.00;99.90
20815;DHT22;10568;48.176;16.316;2024-01-07T14:40:16;0.00;99.90
20815;DHT22;10568;48.176;16.316;2024-01-07T14:42:45;0.00;99.90
20815;DHT22;10568;48.176;16.316;2024-01-07T14:45:12;0.00;99.90
20815;DHT22;10568;48.176;16.316;2024-01-07T14:47:39;0.00;99.90
20815;DHT22;10568;48.176;16.316;2024-01-07T14:50:07;0.00;99.90
20815;DHT22;10568;48.176;16.316;2024-01-07T14:52:35;0.00;99.90
20815;DHT22;10568;48.176;16.316;2024-01-07T14:55:03;-0.10;99.90
20815;DHT22;10568;48.176;16.316;2024-01-07T14:57:30;0.00;99.90
20815;DHT22;10568;48.176;16.316;2024-01-07T14:59:57;-0.10;99.90
20815;DHT22;10568;48.176;16.316;2024-01-07T15:02:24;-0.10;99.90
20815;DHT22;10568;48.176;16.316;2024-01-07T15:04:51;-0.10;99.90
20815;DHT22;10568;48.176;16.316;2024-01-07T15:07:22;-0.10;99.90
20815;DHT22;10568;48.176;16.316;2024-01-07T15:09:50;0.00;99.90
20815;DHT22;10568;48.176;16.316;2024-01-07T15:12:17;-0.10;99.90
20815;DHT22;10568;48.176;16.316;2024-01-07T15:14:45;-0.10;99.90
20815;DHT22;10568;48.176;16.316;2024-01-07T15:17:13;-0.10;99.90
20815;DHT22;10568;48.176;16.316;2024-01-07T15:19:41;-0.10;99.90
20815;DHT22;10568;48.176;16.316;2024-01-07T15:22:09;-0.10;99.90
20815;DHT22;10568;48.176;16.316;2024-01-07T15:24:36;-0.20;99.90
20815;DHT22;10568;48.176;16.316;2024-01-07T15:27:04;-0.20;99.90
20815;DHT22;10568;48.176;16.316;2024-01-07T15:29:31;-0.20;99.90
20815;DHT22;10568;48.176;16.316;2024-01-07T15:31:58;-0.20;99.90
20815;DHT22;10568;48.176;16.316;2024-01-07T15:34:25;-0.20;99.90
20815;DHT22;10568;48.176;16.316;2024-01-07T15:36:52;-0.20;99.90
20815;DHT22;10568;48.176;16.316;2024-01-07T15:39:19;-0.20;99.90
20815;DHT22;10568;48.176;16.316;2024-01-07T15:41:46;-0.20;99.90